sensor_id;sensor_type;location;lat;lon;timestamp;P1;durP1;ratioP1;P2;durP2;ratioP2
20314;SDS011;10315;50.958;13.080;2023-03-19T00:04:31;20.90;;;8.77;;
20314;SDS011;10315;50.958;13.080;2023-03-19T00:14:32;20.90;;;8.03;;
20314;SDS011;10315;50.958;13.080;2023-03-19T00:24:35;18.17;;;8.70;;
20314;SDS011;10315;50.958;13.080;2023-03-19T00:34:37;21.97;;;9.20;;
20314;SDS011;10315;50.958;13.080;2023-03-19T00:44:40;18.47;;;9.07;;
20314;SDS011;10315;50.958;13.080;2023-03-19T00:54:41;20.27;;;8.13;;
20314;SDS011;10315;50.958;13.080;2023-03-19T01:04:46;19.63;;;8.80;;
20314;SDS011;10315;50.958;13.080;2023-03-19T01:14:48;23.77;;;9.53;;
20314;SDS011;10315;50.958;13.080;2023-03-19T01:24:51;22.17;;;9.73;;
20314;SDS011;10315;50.958;13.080;2023-03-19T01:34:53;23.33;;;9.90;;
20314;SDS011;10315;50.958;13.080;2023-03-19T01:44:56;20.37;;;8.57;;
20314;SDS011;10315;50.958;13.080;2023-03-19T01:54:58;17.83;;;8.37;;
20314;SDS011;10315;50.958;13.080;2023-03-19T02:05:03;19.97;;;9.20;;
20314;SDS011;10315;50.958;13.080;2023-03-19T02:15:08;17.17;;;8.57;;
20314;SDS011;10315;50.958;13.080;2023-03-19T02:25:13;23.47;;;9.53;;
20314;SDS011;10315;50.958;13.080;2023-03-19T02:35:20;20.33;;;9.53;;
20314;SDS011;10315;50.958;13.080;2023-03-19T02:45:21;22.20;;;9.67;;
20314;SDS011;10315;50.958;13.080;2023-03-19T02:55:26;19.43;;;9.23;;
20314;SDS011;10315;50.958;13.080;2023-03-19T03:05:28;17.10;;;8.40;;
20314;SDS011;10315;50.958;13.080;2023-03-19T03:15:31;22.67;;;9.30;;
20314;SDS011;10315;50.958;13.080;2023-03-19T03:25:32;18.47;;;9.13;;
20314;SDS011;10315;50.958;13.080;2023-03-19T03:35:36;21.23;;;9.57;;
20314;SDS011;10315;50.958;13.080;2023-03-19T03:45:38;30.50;;;9.10;;
20314;SDS011;10315;50.958;13.080;2023-03-19T03:55:41;21.03;;;9.00;;
20314;SDS011;10315;50.958;13.080;2023-03-19T04:05:42;19.47;;;9.53;;
20314;SDS011;10315;50.958;13.080;2023-03-19T04:15:46;17.17;;;9.30;;
20314;SDS011;10315;50.958;13.080;2023-03-19T04:25:47;20.10;;;9.10;;
20314;SDS011;10315;50.958;13.080;2023-03-19T04:35:50;22.73;;;9.50;;
20314;SDS011;10315;50.958;13.080;2023-03-19T04:45:53;20.77;;;9.53;;
20314;SDS011;10315;50.958;13.080;2023-03-19T04:55:56;20.07;;;9.37;;
20314;SDS011;10315;50.958;13.080;2023-03-19T05:05:57;20.20;;;9.03;;
20314;SDS011;10315;50.958;13.080;2023-03-19T05:16:00;21.90;;;8.93;;
20314;SDS011;10315;50.958;13.080;2023-03-19T05:26:02;16.83;;;8.93;;
20314;SDS011;10315;50.958;13.080;2023-03-19T05:36:07;23.33;;;9.23;;
20314;SDS011;10315;50.958;13.080;2023-03-19T05:46:08;20.97;;;10.17;;
20314;SDS011;10315;50.958;13.080;2023-03-19T05:56:11;21.40;;;9.17;;
20314;SDS011;10315;50.958;13.080;2023-03-19T06:06:13;17.27;;;8.73;;
20314;SDS011;10315;50.958;13.080;2023-03-19T06:16:16;21.50;;;10.07;;
20314;SDS011;10315;50.958;13.080;2023-03-19T06:26:17;16.30;;;8.30;;
20314;SDS011;10315;50.958;13.080;2023-03-19T06:36:20;19.50;;;9.27;;
20314;SDS011;10315;50.958;13.080;2023-03-19T06:46:22;19.47;;;8.70;;
20314;SDS011;10315;50.958;13.080;2023-03-19T06:56:33;16.10;;;8.00;;
20314;SDS011;10315;50.958;13.080;2023-03-19T07:06:34;18.20;;;8.17;;
20314;SDS011;10315;50.958;13.080;2023-03-19T07:16:37;15.13;;;8.23;;
20314;SDS011;10315;50.958;13.080;2023-03-19T07:26:39;16.23;;;7.33;;
20314;SDS011;10315;50.958;13.080;2023-03-19T07:36:42;15.80;;;7.60;;
20314;SDS011;10315;50.958;13.080;2023-03-19T07:46:50;16.10;;;7.17;;
20314;SDS011;10315;50.958;13.080;2023-03-19T07:56:53;17.55;;;7.88;;
20314;SDS011;10315;50.958;13.080;2023-03-19T08:06:54;14.85;;;7.35;;
20314;SDS011;10315;50.958;13.080;2023-03-19T08:16:57;15.10;;;7.63;;
20314;SDS011;10315;50.958;13.080;2023-03-19T08:26:59;12.65;;;6.70;;
20314;SDS011;10315;50.958;13.080;2023-03-19T08:37:02;14.32;;;7.07;;
20314;SDS011;10315;50.958;13.080;2023-03-19T08:47:03;14.57;;;7.40;;
20314;SDS011;10315;50.958;13.080;2023-03-19T08:57:06;14.88;;;7.70;;
20314;SDS011;10315;50.958;13.080;2023-03-19T09:07:08;14.65;;;6.22;;
20314;SDS011;10315;50.958;13.080;2023-03-19T09:17:13;10.88;;;5.78;;
20314;SDS011;10315;50.958;13.080;2023-03-19T09:27:16;12.15;;;5.78;;
20314;SDS011;10315;50.958;13.080;2023-03-19T09:37:21;15.90;;;6.78;;
20314;SDS011;10315;50.958;13.080;2023-03-19T09:47:24;14.15;;;6.18;;
20314;SDS011;10315;50.958;13.080;2023-03-19T09:57:31;13.85;;;5.70;;
20314;SDS011;10315;50.958;13.080;2023-03-19T10:07:38;13.02;;;5.40;;
20314;SDS011;10315;50.958;13.080;2023-03-19T10:17:57;12.40;;;5.50;;
20314;SDS011;10315;50.958;13.080;2023-03-19T10:28:06;12.00;;;6.13;;
20314;SDS011;10315;50.958;13.080;2023-03-19T10:38:17;14.85;;;5.97;;
20314;SDS011;10315;50.958;13.080;2023-03-19T10:48:20;9.23;;;4.88;;
20314;SDS011;10315;50.958;13.080;2023-03-19T10:58:28;12.95;;;5.70;;
20314;SDS011;10315;50.958;13.080;2023-03-19T11:08:32;11.70;;;4.97;;
20314;SDS011;10315;50.958;13.080;2023-03-19T11:18:39;7.03;;;4.13;;
20314;SDS011;10315;50.958;13.080;2023-03-19T11:28:41;8.93;;;4.30;;
20314;SDS011;10315;50.958;13.080;2023-03-19T11:38:48;7.43;;;4.82;;
20314;SDS011;10315;50.958;13.080;2023-03-19T11:49:11;6.82;;;3.35;;
20314;SDS011;10315;50.958;13.080;2023-03-19T11:59:28;6.72;;;3.40;;
20314;SDS011;10315;50.958;13.080;2023-03-19T12:09:37;6.15;;;3.78;;
20314;SDS011;10315;50.958;13.080;2023-03-19T12:19:56;5.30;;;3.45;;
20314;SDS011;10315;50.958;13.080;2023-03-19T12:30:16;5.18;;;2.67;;
20314;SDS011;10315;50.958;13.080;2023-03-19T12:40:27;4.38;;;2.88;;
20314;SDS011;10315;50.958;13.080;2023-03-19T12:50:36;5.53;;;3.70;;
20314;SDS011;10315;50.958;13.080;2023-03-19T13:00:43;6.13;;;2.95;;
20314;SDS011;10315;50.958;13.080;2023-03-19T13:10:49;2.85;;;2.58;;
20314;SDS011;10315;50.958;13.080;2023-03-19T13:20:55;3.53;;;2.05;;
20314;SDS011;10315;50.958;13.080;2023-03-19T13:31:16;7.55;;;2.55;;
20314;SDS011;10315;50.958;13.080;2023-03-19T13:51:54;4.57;;;2.10;;
20314;SDS011;10315;50.958;13.080;2023-03-19T14:02:00;3.22;;;1.70;;
20314;SDS011;10315;50.958;13.080;2023-03-19T14:12:10;2.22;;;1.70;;
20314;SDS011;10315;50.958;13.080;2023-03-19T14:22:31;3.63;;;1.67;;
20314;SDS011;10315;50.958;13.080;2023-03-19T14:32:36;3.00;;;1.85;;
20314;SDS011;10315;50.958;13.080;2023-03-19T14:42:42;2.70;;;1.00;;
20314;SDS011;10315;50.958;13.080;2023-03-19T14:52:57;2.67;;;1.10;;
20314;SDS011;10315;50.958;13.080;2023-03-19T15:03:03;2.72;;;1.48;;
20314;SDS011;10315;50.958;13.080;2023-03-19T15:13:23;2.27;;;1.40;;
20314;SDS011;10315;50.958;13.080;2023-03-19T15:23:34;3.13;;;1.50;;
20314;SDS011;10315;50.958;13.080;2023-03-19T15:33:40;3.33;;;1.70;;
20314;SDS011;10315;50.958;13.080;2023-03-19T15:43:43;2.50;;;1.80;;
20314;SDS011;10315;50.958;13.080;2023-03-19T15:53:45;2.83;;;1.60;;
20314;SDS011;10315;50.958;13.080;2023-03-19T16:03:50;2.87;;;1.63;;
20314;SDS011;10315;50.958;13.080;2023-03-19T16:13:56;3.40;;;1.30;;
20314;SDS011;10315;50.958;13.080;2023-03-19T16:24:00;2.77;;;1.73;;
20314;SDS011;10315;50.958;13.080;2023-03-19T16:34:03;15.50;;;6.10;;
20314;SDS011;10315;50.958;13.080;2023-03-19T16:44:14;52.17;;;19.20;;
20314;SDS011;10315;50.958;13.080;2023-03-19T16:54:17;4.07;;;2.23;;
20314;SDS011;10315;50.958;13.080;2023-03-19T17:04:27;4.30;;;2.67;;
20314;SDS011;10315;50.958;13.080;2023-03-19T17:14:30;2.37;;;1.97;;
20314;SDS011;10315;50.958;13.080;2023-03-19T17:24:33;3.33;;;1.80;;
20314;SDS011;10315;50.958;13.080;2023-03-19T17:34:35;3.73;;;2.53;;
20314;SDS011;10315;50.958;13.080;2023-03-19T17:44:38;1.87;;;1.67;;
20314;SDS011;10315;50.958;13.080;2023-03-19T17:54:42;2.80;;;1.37;;
20314;SDS011;10315;50.958;13.080;2023-03-19T18:04:54;11.03;;;5.87;;
20314;SDS011;10315;50.958;13.080;2023-03-19T18:15:03;5.13;;;1.87;;
20314;SDS011;10315;50.958;13.080;2023-03-19T18:25:08;3.37;;;1.53;;
20314;SDS011;10315;50.958;13.080;2023-03-19T18:35:16;2.50;;;2.00;;
20314;SDS011;10315;50.958;13.080;2023-03-19T18:45:20;2.67;;;2.03;;
20314;SDS011;10315;50.958;13.080;2023-03-19T18:55:25;16.80;;;10.77;;
20314;SDS011;10315;50.958;13.080;2023-03-19T19:05:30;11.20;;;6.57;;
20314;SDS011;10315;50.958;13.080;2023-03-19T19:15:33;6.27;;;4.30;;
20314;SDS011;10315;50.958;13.080;2023-03-19T19:25:37;5.10;;;3.20;;
20314;SDS011;10315;50.958;13.080;2023-03-19T19:35:39;4.23;;;3.50;;
20314;SDS011;10315;50.958;13.080;2023-03-19T19:45:42;6.07;;;3.30;;
20314;SDS011;10315;50.958;13.080;2023-03-19T19:55:48;17.20;;;8.97;;
20314;SDS011;10315;50.958;13.080;2023-03-19T20:05:52;8.43;;;4.90;;
20314;SDS011;10315;50.958;13.080;2023-03-19T20:15:55;42.87;;;19.23;;
20314;SDS011;10315;50.958;13.080;2023-03-19T20:25:59;15.83;;;8.00;;
20314;SDS011;10315;50.958;13.080;2023-03-19T20:36:01;13.43;;;7.13;;
20314;SDS011;10315;50.958;13.080;2023-03-19T20:46:04;11.53;;;7.17;;
20314;SDS011;10315;50.958;13.080;2023-03-19T20:56:08;13.90;;;5.90;;
20314;SDS011;10315;50.958;13.080;2023-03-19T21:06:16;15.40;;;8.13;;
20314;SDS011;10315;50.958;13.080;2023-03-19T21:16:20;10.20;;;6.23;;
20314;SDS011;10315;50.958;13.080;2023-03-19T21:26:24;11.13;;;5.20;;
20314;SDS011;10315;50.958;13.080;2023-03-19T21:36:26;7.63;;;5.13;;
20314;SDS011;10315;50.958;13.080;2023-03-19T21:46:29;7.33;;;4.37;;
20314;SDS011;10315;50.958;13.080;2023-03-19T21:56:42;10.97;;;5.87;;
20314;SDS011;10315;50.958;13.080;2023-03-19T22:06:46;9.40;;;5.77;;
20314;SDS011;10315;50.958;13.080;2023-03-19T22:16:48;10.30;;;5.67;;
20314;SDS011;10315;50.958;13.080;2023-03-19T22:26:54;8.33;;;6.27;;
20314;SDS011;10315;50.958;13.080;2023-03-19T22:36:57;11.73;;;5.73;;
20314;SDS011;10315;50.958;13.080;2023-03-19T22:47:00;11.93;;;6.53;;
20314;SDS011;10315;50.958;13.080;2023-03-19T22:57:02;10.13;;;6.43;;
20314;SDS011;10315;50.958;13.080;2023-03-19T23:07:05;11.20;;;5.80;;
20314;SDS011;10315;50.958;13.080;2023-03-19T23:17:12;11.10;;;6.00;;
20314;SDS011;10315;50.958;13.080;2023-03-19T23:27:20;10.27;;;5.97;;
20314;SDS011;10315;50.958;13.080;2023-03-19T23:37:24;7.43;;;5.67;;
20314;SDS011;10315;50.958;13.080;2023-03-19T23:47:29;11.30;;;5.77;;
20314;SDS011;10315;50.958;13.080;2023-03-19T23:57:30;11.37;;;5.93;;
